Terminal Aerodrome Forecast
Issued by NWS Atlanta, GA

Home | Current Version | Previous Version | Text Only | Print | Product List | Glossary On
Versions: 1 2 3 4 5 6 7 8 9 10 11 12 13 14 15 16 17 18 19 20 21 22 23 24 25 26 27 28 29 30 31 32 33 34 35
774
FTUS42 KFFC 022140 AAA
TAFAHN
TAF AMD
KAHN 022140Z 0222/0318 22006KT P6SM BKN045 BKN100
      TEMPO 0301/0305 VRB15G25KT 4SM TSRA BR BKN025CB
     FM030500 23006KT P6SM VCSH BKN040
     FM030600 25004KT 5SM BR SCT009 BKN015
     FM031200 24005KT P6SM BKN007 PROB30 0316/0318 -SHRA SCT007
      BKN015=

USA.gov is the U.S. government's official web portal to all federal, state and local government web resources and services.